sensor_id;sensor_type;location;lat;lon;timestamp;pressure;altitude;pressure_sealevel;temperature;humidity
23176;BME280;19910;42.652;23.332;2023-04-06T00:00:22;94381.28;;;0.08;76.65
23176;BME280;19910;42.652;23.332;2023-04-06T00:02:49;94378.63;;;0.08;76.82
23176;BME280;19910;42.652;23.332;2023-04-06T00:05:19;94381.81;;;0.05;77.07
23176;BME280;19910;42.652;23.332;2023-04-06T00:07:46;94374.34;;;0.07;76.88
23176;BME280;19910;42.652;23.332;2023-04-06T00:10:13;94371.16;;;0.05;77.27
23176;BME280;19910;42.652;23.332;2023-04-06T00:12:40;94362.63;;;0.03;76.86
23176;BME280;19910;42.652;23.332;2023-04-06T00:15:07;94368.22;;;0.06;76.82
23176;BME280;19910;42.652;23.332;2023-04-06T00:17:34;94355.19;;;-0.06;76.92
23176;BME280;19910;42.652;23.332;2023-04-06T00:20:01;94361.84;;;0.02;76.76
23176;BME280;19910;42.652;23.332;2023-04-06T00:22:29;94364.53;;;-0.03;77.14
23176;BME280;19910;42.652;23.332;2023-04-06T00:24:56;94359.72;;;0.04;77.00
23176;BME280;19910;42.652;23.332;2023-04-06T00:27:23;94357.56;;;0.06;77.05
23176;BME280;19910;42.652;23.332;2023-04-06T00:29:50;94356.78;;;-0.05;77.46
23176;BME280;19910;42.652;23.332;2023-04-06T00:32:17;94354.13;;;0.00;77.19
23176;BME280;19910;42.652;23.332;2023-04-06T00:34:44;94351.75;;;-0.01;76.49
23176;BME280;19910;42.652;23.332;2023-04-06T00:37:11;94342.94;;;0.04;76.75
23176;BME280;19910;42.652;23.332;2023-04-06T00:39:39;94350.66;;;0.05;76.72
23176;BME280;19910;42.652;23.332;2023-04-06T00:42:11;94348.25;;;0.04;76.63
23176;BME280;19910;42.652;23.332;2023-04-06T00:44:39;94349.31;;;0.08;76.38
23176;BME280;19910;42.652;23.332;2023-04-06T00:47:05;94331.22;;;0.10;77.31
23176;BME280;19910;42.652;23.332;2023-04-06T00:49:32;94334.41;;;0.12;76.53
23176;BME280;19910;42.652;23.332;2023-04-06T00:51:59;94342.41;;;0.07;76.85
23176;BME280;19910;42.652;23.332;2023-04-06T00:54:26;94336.00;;;0.03;77.08
23176;BME280;19910;42.652;23.332;2023-04-06T00:56:55;94328.56;;;0.05;77.21
23176;BME280;19910;42.652;23.332;2023-04-06T00:59:22;94342.41;;;0.07;77.13
23176;BME280;19910;42.652;23.332;2023-04-06T01:01:49;94335.47;;;0.06;76.84
23176;BME280;19910;42.652;23.332;2023-04-06T01:04:16;94336.53;;;0.10;76.68
23176;BME280;19910;42.652;23.332;2023-04-06T01:06:42;94333.34;;;0.08;77.06
23176;BME280;19910;42.652;23.332;2023-04-06T01:09:10;94334.41;;;0.12;77.36
23176;BME280;19910;42.652;23.332;2023-04-06T01:11:37;94332.03;;;0.10;77.50
23176;BME280;19910;42.652;23.332;2023-04-06T01:14:05;94328.81;;;0.13;77.88
23176;BME280;19910;42.652;23.332;2023-04-06T01:16:33;94330.16;;;0.06;77.68
23176;BME280;19910;42.652;23.332;2023-04-06T01:19:00;94324.84;;;0.11;77.62
23176;BME280;19910;42.652;23.332;2023-04-06T01:21:27;94324.28;;;0.09;77.81
23176;BME280;19910;42.652;23.332;2023-04-06T01:23:55;94319.78;;;0.09;77.50
23176;BME280;19910;42.652;23.332;2023-04-06T01:26:22;94318.16;;;0.13;77.60
23176;BME280;19910;42.652;23.332;2023-04-06T01:28:49;94310.72;;;0.10;77.63
23176;BME280;19910;42.652;23.332;2023-04-06T01:31:16;94318.41;;;0.17;77.57
23176;BME280;19910;42.652;23.332;2023-04-06T01:33:43;94316.81;;;0.21;77.21
23176;BME280;19910;42.652;23.332;2023-04-06T01:36:10;94316.81;;;0.26;77.91
23176;BME280;19910;42.652;23.332;2023-04-06T01:38:37;94318.91;;;0.29;77.67
23176;BME280;19910;42.652;23.332;2023-04-06T01:41:05;94311.44;;;0.31;77.27
23176;BME280;19910;42.652;23.332;2023-04-06T01:43:32;94322.63;;;0.28;77.21
23176;BME280;19910;42.652;23.332;2023-04-06T01:45:59;94314.09;;;0.31;77.13
23176;BME280;19910;42.652;23.332;2023-04-06T01:48:26;94315.19;;;0.30;77.00
23176;BME280;19910;42.652;23.332;2023-04-06T01:50:53;94305.59;;;0.34;77.00
23176;BME280;19910;42.652;23.332;2023-04-06T01:53:20;94306.66;;;0.33;76.82
23176;BME280;19910;42.652;23.332;2023-04-06T01:55:47;94302.66;;;0.35;77.20
23176;BME280;19910;42.652;23.332;2023-04-06T01:58:15;94301.31;;;0.38;77.13
23176;BME280;19910;42.652;23.332;2023-04-06T02:00:42;94308.47;;;0.43;76.79
23176;BME280;19910;42.652;23.332;2023-04-06T02:03:09;94301.53;;;0.42;76.85
23176;BME280;19910;42.652;23.332;2023-04-06T02:05:36;94296.47;;;0.45;76.41
23176;BME280;19910;42.652;23.332;2023-04-06T02:08:03;94298.88;;;0.47;76.12
23176;BME280;19910;42.652;23.332;2023-04-06T02:10:30;94298.63;;;0.43;76.17
23176;BME280;19910;42.652;23.332;2023-04-06T02:12:57;94296.75;;;0.49;76.48
23176;BME280;19910;42.652;23.332;2023-04-06T02:15:26;94299.63;;;0.57;76.57
23176;BME280;19910;42.652;23.332;2023-04-06T02:17:53;94287.97;;;0.43;76.21
23176;BME280;19910;42.652;23.332;2023-04-06T02:20:20;94309.25;;;0.53;76.20
23176;BME280;19910;42.652;23.332;2023-04-06T02:22:47;94298.34;;;0.50;76.40
23176;BME280;19910;42.652;23.332;2023-04-06T02:25:14;94295.94;;;0.53;76.39
23176;BME280;19910;42.652;23.332;2023-04-06T02:27:41;94298.59;;;0.53;76.06
23176;BME280;19910;42.652;23.332;2023-04-06T02:30:08;94309.22;;;0.63;76.34
23176;BME280;19910;42.652;23.332;2023-04-06T02:32:37;94297.50;;;0.59;75.89
23176;BME280;19910;42.652;23.332;2023-04-06T02:35:04;94306.56;;;0.58;76.45
23176;BME280;19910;42.652;23.332;2023-04-06T02:37:31;94305.53;;;0.54;76.50
23176;BME280;19910;42.652;23.332;2023-04-06T02:39:58;94289.75;;;0.58;76.47
23176;BME280;19910;42.652;23.332;2023-04-06T02:42:25;94294.28;;;0.57;76.37
23176;BME280;19910;42.652;23.332;2023-04-06T02:44:51;94294.28;;;0.57;76.52
23176;BME280;19910;42.652;23.332;2023-04-06T02:47:18;94294.28;;;0.57;76.39
23176;BME280;19910;42.652;23.332;2023-04-06T02:49:46;94291.34;;;0.59;76.49
23176;BME280;19910;42.652;23.332;2023-04-06T02:52:13;94279.97;;;0.48;76.80
23176;BME280;19910;42.652;23.332;2023-04-06T02:54:40;94290.63;;;0.48;76.52
23176;BME280;19910;42.652;23.332;2023-04-06T02:57:07;94280.47;;;0.50;76.67
23176;BME280;19910;42.652;23.332;2023-04-06T02:59:34;94286.88;;;0.49;76.45
23176;BME280;19910;42.652;23.332;2023-04-06T03:02:01;94287.94;;;0.48;76.42
23176;BME280;19910;42.652;23.332;2023-04-06T03:04:28;94282.63;;;0.43;76.42
23176;BME280;19910;42.652;23.332;2023-04-06T03:06:56;94285.28;;;0.48;76.55
23176;BME280;19910;42.652;23.332;2023-04-06T03:09:23;94282.63;;;0.48;77.25
23176;BME280;19910;42.652;23.332;2023-04-06T03:11:50;94292.75;;;0.46;76.72
23176;BME280;19910;42.652;23.332;2023-04-06T03:14:16;94282.63;;;0.43;77.11
23176;BME280;19910;42.652;23.332;2023-04-06T03:16:47;94283.72;;;0.37;76.88
23176;BME280;19910;42.652;23.332;2023-04-06T03:19:13;94283.22;;;0.35;77.14
23176;BME280;19910;42.652;23.332;2023-04-06T03:21:40;94290.09;;;0.41;77.40
23176;BME280;19910;42.652;23.332;2023-04-06T03:24:09;94276.28;;;0.39;77.34
23176;BME280;19910;42.652;23.332;2023-04-06T03:26:36;94276.75;;;0.46;77.11
23176;BME280;19910;42.652;23.332;2023-04-06T03:29:02;94282.09;;;0.46;77.32
23176;BME280;19910;42.652;23.332;2023-04-06T03:31:29;94277.03;;;0.50;76.69
23176;BME280;19910;42.652;23.332;2023-04-06T03:33:56;94275.94;;;0.51;76.46
23176;BME280;19910;42.652;23.332;2023-04-06T03:36:24;94274.69;;;0.38;76.54
23176;BME280;19910;42.652;23.332;2023-04-06T03:38:51;94277.78;;;0.55;76.73
23176;BME280;19910;42.652;23.332;2023-04-06T03:41:20;94289.53;;;0.54;76.69
23176;BME280;19910;42.652;23.332;2023-04-06T03:43:47;94287.94;;;0.48;76.65
23176;BME280;19910;42.652;23.332;2023-04-06T03:46:14;94289.81;;;0.43;76.71
23176;BME280;19910;42.652;23.332;2023-04-06T03:48:41;94286.34;;;0.47;76.89
23176;BME280;19910;42.652;23.332;2023-04-06T03:51:07;94290.03;;;0.56;76.91
23176;BME280;19910;42.652;23.332;2023-04-06T03:53:34;94278.34;;;0.52;76.65
23176;BME280;19910;42.652;23.332;2023-04-06T03:56:02;94287.13;;;0.53;76.48
23176;BME280;19910;42.652;23.332;2023-04-06T03:58:31;94279.41;;;0.51;76.09
23176;BME280;19910;42.652;23.332;2023-04-06T04:00:58;94280.44;;;0.60;75.98
23176;BME280;19910;42.652;23.332;2023-04-06T04:03:24;94264.97;;;0.57;75.58
23176;BME280;19910;42.652;23.332;2023-04-06T04:05:52;94287.38;;;0.56;76.11
23176;BME280;19910;42.652;23.332;2023-04-06T04:08:20;94282.03;;;0.61;75.74
23176;BME280;19910;42.652;23.332;2023-04-06T04:10:47;94291.63;;;0.62;75.88
23176;BME280;19910;42.652;23.332;2023-04-06T04:13:14;94289.47;;;0.64;75.43
23176;BME280;19910;42.652;23.332;2023-04-06T04:15:42;94283.84;;;0.71;75.42
23176;BME280;19910;42.652;23.332;2023-04-06T04:18:09;94284.09;;;0.75;75.56
23176;BME280;19910;42.652;23.332;2023-04-06T04:20:36;94278.22;;;0.78;75.24
23176;BME280;19910;42.652;23.332;2023-04-06T04:23:03;94287.28;;;0.82;75.29
23176;BME280;19910;42.652;23.332;2023-04-06T04:25:29;94295.81;;;0.79;75.32
23176;BME280;19910;42.652;23.332;2023-04-06T04:27:56;94288.56;;;0.84;75.18
23176;BME280;19910;42.652;23.332;2023-04-06T04:30:23;94302.41;;;0.91;74.91
23176;BME280;19910;42.652;23.332;2023-04-06T04:32:51;94295.22;;;0.92;74.46
23176;BME280;19910;42.652;23.332;2023-04-06T04:35:18;94297.03;;;0.96;74.63
23176;BME280;19910;42.652;23.332;2023-04-06T04:37:45;94296.75;;;0.98;74.54
23176;BME280;19910;42.652;23.332;2023-04-06T04:40:12;94303.16;;;0.97;74.45
23176;BME280;19910;42.652;23.332;2023-04-06T04:42:39;94303.59;;;1.14;74.60
23176;BME280;19910;42.652;23.332;2023-04-06T04:45:06;94299.56;;;1.22;73.64
23176;BME280;19910;42.652;23.332;2023-04-06T04:47:33;94288.13;;;1.16;74.26
23176;BME280;19910;42.652;23.332;2023-04-06T04:50:01;94291.84;;;1.20;73.75
23176;BME280;19910;42.652;23.332;2023-04-06T04:52:28;94297.16;;;1.20;73.66
23176;BME280;19910;42.652;23.332;2023-04-06T04:54:55;94290.72;;;1.26;73.46
23176;BME280;19910;42.652;23.332;2023-04-06T04:57:22;94291.13;;;1.43;73.45
23176;BME280;19910;42.652;23.332;2023-04-06T04:59:49;94288.47;;;1.38;73.83
23176;BME280;19910;42.652;23.332;2023-04-06T05:02:16;94291.09;;;1.49;73.22
23176;BME280;19910;42.652;23.332;2023-04-06T05:04:43;94283.56;;;1.51;73.16
23176;BME280;19910;42.652;23.332;2023-04-06T05:07:11;94291.59;;;1.51;72.85
23176;BME280;19910;42.652;23.332;2023-04-06T05:09:38;94291.75;;;1.64;72.13
23176;BME280;19910;42.652;23.332;2023-04-06T05:12:05;94282.44;;;1.62;72.38
23176;BME280;19910;42.652;23.332;2023-04-06T05:14:32;94282.38;;;1.67;72.21
23176;BME280;19910;42.652;23.332;2023-04-06T05:16:59;94284.59;;;1.60;72.62
23176;BME280;19910;42.652;23.332;2023-04-06T05:19:26;94282.88;;;1.74;71.87
23176;BME280;19910;42.652;23.332;2023-04-06T05:21:53;94291.81;;;1.88;71.94
23176;BME280;19910;42.652;23.332;2023-04-06T05:24:21;94288.34;;;2.17;71.96
23176;BME280;19910;42.652;23.332;2023-04-06T05:26:48;94292.13;;;2.10;71.21
23176;BME280;19910;42.652;23.332;2023-04-06T05:29:16;94300.91;;;1.87;71.03
23176;BME280;19910;42.652;23.332;2023-04-06T05:31:43;94288.78;;;1.66;72.17
23176;BME280;19910;42.652;23.332;2023-04-06T05:34:10;94292.38;;;1.85;72.38
23176;BME280;19910;42.652;23.332;2023-04-06T05:36:38;94297.38;;;1.92;71.92
23176;BME280;19910;42.652;23.332;2023-04-06T05:39:05;94289.44;;;1.87;72.12
23176;BME280;19910;42.652;23.332;2023-04-06T05:41:33;94286.00;;;1.81;72.12
23176;BME280;19910;42.652;23.332;2023-04-06T05:44:00;94292.94;;;1.82;72.29
23176;BME280;19910;42.652;23.332;2023-04-06T05:46:27;94288.53;;;1.96;72.61
23176;BME280;19910;42.652;23.332;2023-04-06T05:48:54;94285.19;;;2.09;72.11
23176;BME280;19910;42.652;23.332;2023-04-06T05:51:21;94288.91;;;2.13;71.65
23176;BME280;19910;42.652;23.332;2023-04-06T05:53:48;94283.69;;;1.98;72.08
23176;BME280;19910;42.652;23.332;2023-04-06T05:56:15;94284.41;;;1.80;72.48
23176;BME280;19910;42.652;23.332;2023-04-06T05:58:43;94281.28;;;2.02;72.29
23176;BME280;19910;42.652;23.332;2023-04-06T06:01:10;94284.47;;;2.28;72.08
23176;BME280;19910;42.652;23.332;2023-04-06T06:03:37;94291.84;;;2.36;71.61
23176;BME280;19910;42.652;23.332;2023-04-06T06:06:04;94273.81;;;2.23;72.10
23176;BME280;19910;42.652;23.332;2023-04-06T06:08:31;94276.75;;;2.26;71.65
23176;BME280;19910;42.652;23.332;2023-04-06T06:10:58;94274.44;;;2.62;70.98
23176;BME280;19910;42.652;23.332;2023-04-06T06:13:25;94272.75;;;2.71;71.39
23176;BME280;19910;42.652;23.332;2023-04-06T06:15:54;94266.31;;;3.10;70.05
23176;BME280;19910;42.652;23.332;2023-04-06T06:18:20;94276.72;;;2.50;71.10
23176;BME280;19910;42.652;23.332;2023-04-06T06:20:47;94276.72;;;2.50;71.14
23176;BME280;19910;42.652;23.332;2023-04-06T06:23:14;94269.31;;;2.66;71.14
23176;BME280;19910;42.652;23.332;2023-04-06T06:25:41;94276.38;;;2.99;70.32
23176;BME280;19910;42.652;23.332;2023-04-06T06:28:08;94270.38;;;3.58;68.05
23176;BME280;19910;42.652;23.332;2023-04-06T06:30:34;94267.28;;;3.84;67.91
23176;BME280;19910;42.652;23.332;2023-04-06T06:33:03;94266.88;;;3.77;67.06
23176;BME280;19910;42.652;23.332;2023-04-06T06:35:30;94253.28;;;4.47;65.94
23176;BME280;19910;42.652;23.332;2023-04-06T06:37:56;94256.81;;;4.83;64.21
23176;BME280;19910;42.652;23.332;2023-04-06T06:40:23;94262.75;;;5.08;63.53
23176;BME280;19910;42.652;23.332;2023-04-06T06:42:51;94255.56;;;4.53;65.16
23176;BME280;19910;42.652;23.332;2023-04-06T06:45:18;94257.63;;;4.15;65.32
23176;BME280;19910;42.652;23.332;2023-04-06T06:47:46;94267.22;;;3.89;66.17
23176;BME280;19910;42.652;23.332;2023-04-06T06:50:14;94268.00;;;4.63;65.00
23176;BME280;19910;42.652;23.332;2023-04-06T06:52:41;94274.25;;;5.22;62.88
23176;BME280;19910;42.652;23.332;2023-04-06T06:55:09;94266.00;;;4.55;64.33
23176;BME280;19910;42.652;23.332;2023-04-06T06:57:36;94267.28;;;5.21;63.18
23176;BME280;19910;42.652;23.332;2023-04-06T07:00:04;94263.16;;;5.37;62.55
23176;BME280;19910;42.652;23.332;2023-04-06T07:02:34;94253.91;;;4.93;62.98
23176;BME280;19910;42.652;23.332;2023-04-06T07:05:02;94249.56;;;4.97;62.82
23176;BME280;19910;42.652;23.332;2023-04-06T07:07:31;94262.41;;;4.18;65.04
23176;BME280;19910;42.652;23.332;2023-04-06T07:09:58;94245.28;;;4.96;63.08
23176;BME280;19910;42.652;23.332;2023-04-06T07:12:25;94253.56;;;6.42;59.70
23176;BME280;19910;42.652;23.332;2023-04-06T07:14:52;94239.56;;;6.71;58.24
23176;BME280;19910;42.652;23.332;2023-04-06T07:17:19;94247.91;;;5.68;61.28
23176;BME280;19910;42.652;23.332;2023-04-06T07:19:46;94244.88;;;5.84;61.60
23176;BME280;19910;42.652;23.332;2023-04-06T07:22:12;94256.22;;;5.58;60.61
23176;BME280;19910;42.652;23.332;2023-04-06T07:24:41;94243.66;;;5.67;60.84
23176;BME280;19910;42.652;23.332;2023-04-06T07:27:08;94241.00;;;5.76;60.34
23176;BME280;19910;42.652;23.332;2023-04-06T07:29:34;94248.03;;;5.63;61.59
23176;BME280;19910;42.652;23.332;2023-04-06T07:32:01;94246.09;;;6.00;60.27
23176;BME280;19910;42.652;23.332;2023-04-06T07:34:28;94251.78;;;6.69;57.93
23176;BME280;19910;42.652;23.332;2023-04-06T07:36:55;94242.97;;;6.46;58.17
23176;BME280;19910;42.652;23.332;2023-04-06T07:39:22;94253.28;;;5.10;61.71
23176;BME280;19910;42.652;23.332;2023-04-06T07:41:50;94243.13;;;4.85;62.83
23176;BME280;19910;42.652;23.332;2023-04-06T07:44:17;94246.31;;;4.73;62.48
23176;BME280;19910;42.652;23.332;2023-04-06T07:46:44;94241.41;;;5.25;62.88
23176;BME280;19910;42.652;23.332;2023-04-06T07:49:10;94243.13;;;4.85;62.40
23176;BME280;19910;42.652;23.332;2023-04-06T07:51:38;94250.00;;;4.50;64.83
23176;BME280;19910;42.652;23.332;2023-04-06T07:54:05;94244.94;;;4.62;65.04
23176;BME280;19910;42.652;23.332;2023-04-06T07:56:32;94251.91;;;4.63;65.06
23176;BME280;19910;42.652;23.332;2023-04-06T07:59:00;94244.75;;;4.31;65.59
23176;BME280;19910;42.652;23.332;2023-04-06T08:01:28;94243.63;;;4.73;65.88
23176;BME280;19910;42.652;23.332;2023-04-06T08:03:55;94254.06;;;4.75;65.88
23176;BME280;19910;42.652;23.332;2023-04-06T08:06:22;94252.28;;;4.70;65.49
23176;BME280;19910;42.652;23.332;2023-04-06T08:08:49;94239.56;;;4.62;66.21
23176;BME280;19910;42.652;23.332;2023-04-06T08:11:16;94239.34;;;3.90;67.27
23176;BME280;19910;42.652;23.332;2023-04-06T08:13:42;94235.19;;;4.66;65.01
23176;BME280;19910;42.652;23.332;2023-04-06T08:16:11;94235.31;;;5.11;64.34
23176;BME280;19910;42.652;23.332;2023-04-06T08:18:38;94239.03;;;5.59;64.37
23176;BME280;19910;42.652;23.332;2023-04-06T08:21:05;94245.44;;;5.14;64.41
23176;BME280;19910;42.652;23.332;2023-04-06T08:23:32;94246.88;;;4.97;65.28
23176;BME280;19910;42.652;23.332;2023-04-06T08:25:59;94252.00;;;5.08;64.93
23176;BME280;19910;42.652;23.332;2023-04-06T08:28:26;94244.97;;;5.34;64.61
23176;BME280;19910;42.652;23.332;2023-04-06T08:30:53;94243.16;;;6.10;61.42
23176;BME280;19910;42.652;23.332;2023-04-06T08:33:21;94238.28;;;5.67;62.31
23176;BME280;19910;42.652;23.332;2023-04-06T08:35:48;94256.69;;;5.38;62.15
23176;BME280;19910;42.652;23.332;2023-04-06T08:38:15;94231.19;;;4.91;61.57
23176;BME280;19910;42.652;23.332;2023-04-06T08:40:42;94242.16;;;4.40;63.74
23176;BME280;19910;42.652;23.332;2023-04-06T08:43:14;94245.09;;;5.51;62.11
23176;BME280;19910;42.652;23.332;2023-04-06T08:45:43;94245.94;;;6.05;60.42
23176;BME280;19910;42.652;23.332;2023-04-06T08:48:11;94257.00;;;5.00;60.61
23176;BME280;19910;42.652;23.332;2023-04-06T08:50:39;94244.84;;;5.17;60.00
23176;BME280;19910;42.652;23.332;2023-04-06T08:53:07;94241.78;;;5.77;58.92
23176;BME280;19910;42.652;23.332;2023-04-06T08:55:35;94235.81;;;5.35;59.82
23176;BME280;19910;42.652;23.332;2023-04-06T08:58:05;94234.34;;;5.51;61.39
23176;BME280;19910;42.652;23.332;2023-04-06T09:00:47;94237.34;;;5.50;60.01
23176;BME280;19910;42.652;23.332;2023-04-06T09:03:14;94237.84;;;5.29;60.56
23176;BME280;19910;42.652;23.332;2023-04-06T09:05:44;94245.28;;;4.96;61.44
23176;BME280;19910;42.652;23.332;2023-04-06T09:08:13;94235.56;;;5.23;61.30
23176;BME280;19910;42.652;23.332;2023-04-06T09:10:40;94229.91;;;5.69;60.71
23176;BME280;19910;42.652;23.332;2023-04-06T09:13:10;94235.81;;;5.35;60.50
23176;BME280;19910;42.652;23.332;2023-04-06T09:15:37;94241.88;;;5.63;61.00
23176;BME280;19910;42.652;23.332;2023-04-06T09:18:05;94242.56;;;5.46;59.72
23176;BME280;19910;42.652;23.332;2023-04-06T09:20:33;94230.75;;;5.56;60.05
23176;BME280;19910;42.652;23.332;2023-04-06T09:23:04;94233.09;;;6.24;60.59
23176;BME280;19910;42.652;23.332;2023-04-06T09:25:31;94223.84;;;6.08;60.00
23176;BME280;19910;42.652;23.332;2023-04-06T09:28:00;94220.06;;;6.18;59.48
23176;BME280;19910;42.652;23.332;2023-04-06T09:30:28;94237.81;;;5.74;60.37
23176;BME280;19910;42.652;23.332;2023-04-06T09:32:56;94236.56;;;5.94;60.77
23176;BME280;19910;42.652;23.332;2023-04-06T09:35:24;94245.47;;;6.03;60.31
23176;BME280;19910;42.652;23.332;2023-04-06T09:37:52;94237.84;;;5.96;59.27
23176;BME280;19910;42.652;23.332;2023-04-06T09:40:22;94234.72;;;6.03;59.67
23176;BME280;19910;42.652;23.332;2023-04-06T09:42:50;94234.81;;;6.20;59.62
23176;BME280;19910;42.652;23.332;2023-04-06T09:45:20;94240.16;;;5.89;58.81
23176;BME280;19910;42.652;23.332;2023-04-06T09:47:47;94227.66;;;6.16;58.10
23176;BME280;19910;42.652;23.332;2023-04-06T09:50:15;94233.28;;;6.36;58.57
23176;BME280;19910;42.652;23.332;2023-04-06T09:52:50;94236.75;;;6.85;56.69
23176;BME280;19910;42.652;23.332;2023-04-06T09:55:23;94230.34;;;7.38;54.98
23176;BME280;19910;42.652;23.332;2023-04-06T09:58:00;94228.44;;;7.64;53.94
23176;BME280;19910;42.652;23.332;2023-04-06T10:00:35;94229.69;;;7.58;53.50
23176;BME280;19910;42.652;23.332;2023-04-06T10:03:13;94237.41;;;6.42;55.13
23176;BME280;19910;42.652;23.332;2023-04-06T10:05:45;94245.31;;;5.99;56.42
23176;BME280;19910;42.652;23.332;2023-04-06T10:08:14;94239.50;;;6.46;56.41
23176;BME280;19910;42.652;23.332;2023-04-06T10:10:43;94235.41;;;7.48;54.34
23176;BME280;19910;42.652;23.332;2023-04-06T10:13:11;94233.19;;;7.50;53.46
23176;BME280;19910;42.652;23.332;2023-04-06T10:15:38;94225.81;;;6.73;54.90
23176;BME280;19910;42.652;23.332;2023-04-06T10:18:05;94240.03;;;6.65;54.91
23176;BME280;19910;42.652;23.332;2023-04-06T10:20:38;94235.09;;;6.50;55.41
23176;BME280;19910;42.652;23.332;2023-04-06T10:23:09;94234.59;;;7.13;55.80
23176;BME280;19910;42.652;23.332;2023-04-06T10:25:39;94231.63;;;7.23;53.41
23176;BME280;19910;42.652;23.332;2023-04-06T10:28:08;94217.28;;;6.88;53.18
23176;BME280;19910;42.652;23.332;2023-04-06T10:30:41;94223.97;;;6.99;55.22
23176;BME280;19910;42.652;23.332;2023-04-06T10:33:15;94213.19;;;6.82;54.02
23176;BME280;19910;42.652;23.332;2023-04-06T10:35:42;94210.84;;;7.15;54.79
23176;BME280;19910;42.652;23.332;2023-04-06T10:38:09;94206.22;;;6.81;53.81
23176;BME280;19910;42.652;23.332;2023-04-06T10:40:38;94212.97;;;6.61;55.48
23176;BME280;19910;42.652;23.332;2023-04-06T10:43:10;94216.00;;;6.77;54.93
23176;BME280;19910;42.652;23.332;2023-04-06T10:45:38;94221.03;;;6.53;54.11
23176;BME280;19910;42.652;23.332;2023-04-06T10:48:14;94207.84;;;7.08;54.79
23176;BME280;19910;42.652;23.332;2023-04-06T10:50:41;94213.00;;;5.68;55.33
23176;BME280;19910;42.652;23.332;2023-04-06T10:53:08;94222.75;;;5.87;57.43
23176;BME280;19910;42.652;23.332;2023-04-06T10:55:38;94209.00;;;6.59;55.72
23176;BME280;19910;42.652;23.332;2023-04-06T10:58:07;94225.81;;;5.94;57.22
23176;BME280;19910;42.652;23.332;2023-04-06T11:00:35;94219.81;;;5.97;57.05
23176;BME280;19910;42.652;23.332;2023-04-06T11:03:09;94210.13;;;6.18;57.41
23176;BME280;19910;42.652;23.332;2023-04-06T11:05:36;94208.44;;;5.78;57.35
23176;BME280;19910;42.652;23.332;2023-04-06T11:08:03;94209.69;;;6.25;58.52
23176;BME280;19910;42.652;23.332;2023-04-06T11:10:30;94200.03;;;6.32;56.80
23176;BME280;19910;42.652;23.332;2023-04-06T11:12:57;94209.31;;;6.18;55.91
23176;BME280;19910;42.652;23.332;2023-04-06T11:15:24;94207.00;;;5.94;56.83
23176;BME280;19910;42.652;23.332;2023-04-06T11:17:52;94193.94;;;5.56;56.95
23176;BME280;19910;42.652;23.332;2023-04-06T11:20:19;94196.25;;;5.71;57.67
23176;BME280;19910;42.652;23.332;2023-04-06T11:22:50;94186.47;;;5.76;56.60
23176;BME280;19910;42.652;23.332;2023-04-06T11:25:17;94190.09;;;6.02;55.42
23176;BME280;19910;42.652;23.332;2023-04-06T11:27:45;94194.91;;;5.60;56.63
23176;BME280;19910;42.652;23.332;2023-04-06T11:30:13;94189.88;;;5.90;57.19
23176;BME280;19910;42.652;23.332;2023-04-06T11:32:40;94200.25;;;6.05;56.84
23176;BME280;19910;42.652;23.332;2023-04-06T11:35:13;94186.63;;;5.48;58.01
23176;BME280;19910;42.652;23.332;2023-04-06T11:37:45;94184.88;;;5.97;57.63
23176;BME280;19910;42.652;23.332;2023-04-06T11:40:12;94192.25;;;6.22;56.47
23176;BME280;19910;42.652;23.332;2023-04-06T11:42:39;94188.94;;;5.63;56.90
23176;BME280;19910;42.652;23.332;2023-04-06T11:45:07;94185.66;;;5.44;57.43
23176;BME280;19910;42.652;23.332;2023-04-06T11:47:35;94181.81;;;5.90;56.76
23176;BME280;19910;42.652;23.332;2023-04-06T11:50:06;94179.06;;;5.81;56.21
23176;BME280;19910;42.652;23.332;2023-04-06T11:52:35;94176.38;;;5.81;57.19
23176;BME280;19910;42.652;23.332;2023-04-06T11:55:11;94172.91;;;5.81;56.86
23176;BME280;19910;42.652;23.332;2023-04-06T11:57:38;94173.75;;;5.90;57.92
23176;BME280;19910;42.652;23.332;2023-04-06T12:00:06;94169.41;;;6.02;56.63
23176;BME280;19910;42.652;23.332;2023-04-06T12:02:33;94180.16;;;5.27;57.35
23176;BME280;19910;42.652;23.332;2023-04-06T12:05:01;94183.00;;;5.08;57.88
23176;BME280;19910;42.652;23.332;2023-04-06T12:07:28;94183.94;;;5.26;57.93
23176;BME280;19910;42.652;23.332;2023-04-06T12:09:56;94170.53;;;5.04;57.50
23176;BME280;19910;42.652;23.332;2023-04-06T12:12:23;94175.94;;;5.12;58.91
23176;BME280;19910;42.652;23.332;2023-04-06T12:14:50;94173.69;;;5.50;58.74
23176;BME280;19910;42.652;23.332;2023-04-06T12:17:18;94174.97;;;5.53;57.68
23176;BME280;19910;42.652;23.332;2023-04-06T12:19:45;94174.28;;;5.47;58.02
23176;BME280;19910;42.652;23.332;2023-04-06T12:22:11;94168.44;;;5.23;59.58
23176;BME280;19910;42.652;23.332;2023-04-06T12:24:38;94177.03;;;5.11;59.09
23176;BME280;19910;42.652;23.332;2023-04-06T12:27:07;94171.25;;;5.18;59.72
23176;BME280;19910;42.652;23.332;2023-04-06T12:29:34;94170.59;;;5.65;58.72
23176;BME280;19910;42.652;23.332;2023-04-06T12:32:00;94177.16;;;5.06;58.34
23176;BME280;19910;42.652;23.332;2023-04-06T12:34:27;94166.59;;;4.87;59.23
23176;BME280;19910;42.652;23.332;2023-04-06T12:36:54;94171.78;;;4.70;59.22
23176;BME280;19910;42.652;23.332;2023-04-06T12:39:22;94175.25;;;4.84;60.01
23176;BME280;19910;42.652;23.332;2023-04-06T12:41:49;94167.38;;;4.88;59.54
23176;BME280;19910;42.652;23.332;2023-04-06T12:44:17;94162.06;;;4.96;59.90
23176;BME280;19910;42.652;23.332;2023-04-06T12:46:44;94162.72;;;5.16;59.22
23176;BME280;19910;42.652;23.332;2023-04-06T12:49:12;94155.25;;;5.35;58.81
23176;BME280;19910;42.652;23.332;2023-04-06T12:51:38;94157.16;;;5.12;57.79
23176;BME280;19910;42.652;23.332;2023-04-06T12:54:05;94160.13;;;5.11;58.73
23176;BME280;19910;42.652;23.332;2023-04-06T12:56:32;94159.16;;;5.07;58.63
23176;BME280;19910;42.652;23.332;2023-04-06T12:58:59;94154.78;;;5.11;58.33
23176;BME280;19910;42.652;23.332;2023-04-06T13:01:27;94151.13;;;5.29;57.61